createdAt,value
2023-05-10T00:01:13.948Z,46.06
2023-05-10T00:03:43.937Z,46.30
2023-05-10T00:06:12.496Z,46.19
2023-05-10T00:08:42.385Z,46.28
2023-05-10T00:11:14.966Z,45.92
2023-05-10T00:13:45.070Z,45.89
2023-05-10T00:16:15.798Z,45.76
2023-05-10T00:18:45.853Z,45.61
2023-05-10T00:21:15.932Z,45.47
2023-05-10T00:23:44.852Z,45.38
2023-05-10T00:26:15.262Z,45.16
2023-05-10T00:28:49.081Z,45.08
2023-05-10T00:31:22.458Z,45.05
2023-05-10T00:33:52.726Z,45.13
2023-05-10T00:36:22.663Z,44.70
2023-05-10T00:38:52.270Z,44.58
2023-05-10T00:41:23.021Z,44.70
2023-05-10T00:43:52.507Z,44.77
2023-05-10T00:46:22.202Z,44.75
2023-05-10T00:48:52.361Z,44.75
2023-05-10T00:51:22.310Z,44.73
2023-05-10T00:53:53.530Z,44.61
2023-05-10T00:56:25.818Z,45.06
2023-05-10T00:58:55.473Z,44.58
2023-05-10T01:01:24.726Z,44.31
2023-05-10T01:03:55.103Z,44.27
2023-05-10T01:06:24.821Z,44.32
2023-05-10T01:08:59.813Z,44.46
2023-05-10T01:11:29.586Z,44.43
2023-05-10T01:14:00.123Z,45.16
2023-05-10T01:16:31.319Z,45.00
2023-05-10T01:19:00.271Z,44.43
2023-05-10T01:21:48.988Z,44.53
2023-05-10T01:24:29.190Z,44.38
2023-05-10T01:27:01.148Z,44.06
2023-05-10T01:30:04.990Z,44.12
2023-05-10T01:32:52.343Z,44.28
2023-05-10T01:35:49.064Z,44.32
2023-05-10T01:38:30.465Z,44.23
2023-05-10T01:41:21.047Z,44.35
2023-05-10T01:44:21.736Z,44.38
2023-05-10T01:47:06.951Z,44.31
2023-05-10T01:49:52.570Z,44.42
2023-05-10T01:52:29.138Z,43.99
2023-05-10T01:55:07.134Z,43.86
2023-05-10T01:57:41.082Z,43.77
2023-05-10T02:00:12.575Z,43.70
2023-05-10T02:02:49.357Z,43.70
2023-05-10T02:05:20.872Z,43.59
2023-05-10T02:07:52.074Z,43.55
2023-05-10T02:10:24.405Z,43.35
2023-05-10T02:12:55.815Z,43.30
2023-05-10T02:15:27.379Z,42.96
2023-05-10T02:18:04.947Z,42.95
2023-05-10T02:20:38.177Z,42.99
2023-05-10T02:23:10.639Z,42.90
2023-05-10T02:25:41.385Z,42.64
2023-05-10T02:28:12.674Z,42.56
2023-05-10T02:30:46.268Z,42.74
2023-05-10T02:33:16.820Z,42.82
2023-05-10T02:35:48.969Z,42.88
2023-05-10T02:38:22.225Z,42.71
2023-05-10T02:40:54.444Z,42.69
2023-05-10T02:43:26.003Z,42.76
2023-05-10T02:45:55.561Z,42.64
2023-05-10T02:48:25.358Z,42.87
2023-05-10T02:50:58.383Z,42.86
2023-05-10T02:53:34.302Z,42.88
2023-05-10T02:56:12.817Z,42.86
2023-05-10T02:58:43.729Z,42.76
2023-05-10T03:01:14.142Z,42.95
2023-05-10T03:03:47.196Z,42.96
2023-05-10T03:06:18.046Z,42.62
2023-05-10T03:08:48.552Z,42.57
2023-05-10T03:11:47.326Z,42.48
2023-05-10T03:14:33.122Z,42.44
2023-05-10T03:17:13.210Z,42.16
2023-05-10T03:19:55.273Z,41.90
2023-05-10T03:22:49.236Z,42.32
2023-05-10T03:25:20.374Z,42.55
2023-05-10T03:27:49.630Z,42.85
2023-05-10T03:30:20.092Z,42.84
2023-05-10T03:32:51.065Z,41.77
2023-05-10T03:35:20.293Z,41.73
2023-05-10T03:37:52.466Z,41.46
2023-05-10T03:40:22.133Z,41.56
2023-05-10T03:42:50.544Z,41.63
2023-05-10T03:45:19.723Z,41.49
2023-05-10T03:47:51.735Z,41.42
2023-05-10T03:50:22.706Z,41.46
2023-05-10T03:52:52.985Z,41.60
2023-05-10T03:55:23.945Z,41.57
2023-05-10T03:57:55.730Z,41.59
2023-05-10T04:00:26.214Z,41.61
2023-05-10T04:02:58.303Z,41.60
2023-05-10T04:05:27.323Z,41.49
2023-05-10T04:07:56.441Z,41.43
2023-05-10T04:10:27.452Z,41.47
2023-05-10T04:12:56.739Z,41.38
2023-05-10T04:15:26.308Z,42.33
2023-05-10T04:17:55.944Z,42.92
2023-05-10T04:20:34.896Z,41.91
2023-05-10T04:23:04.897Z,41.57
2023-05-10T04:25:37.075Z,41.42
2023-05-10T04:28:08.879Z,41.30
2023-05-10T04:30:39.172Z,41.25
2023-05-10T04:33:08.936Z,41.76
2023-05-10T04:35:38.309Z,41.18
2023-05-10T04:38:07.698Z,41.03
2023-05-10T04:40:37.406Z,40.96
2023-05-10T04:43:07.800Z,40.94
2023-05-10T04:45:37.195Z,40.80
2023-05-10T04:48:07.674Z,40.47
2023-05-10T04:50:37.459Z,40.51
2023-05-10T04:53:07.349Z,40.41
2023-05-10T04:55:36.255Z,40.33
2023-05-10T04:58:04.618Z,40.40
2023-05-10T05:00:39.176Z,40.43
2023-05-10T05:03:09.044Z,40.42
2023-05-10T05:05:38.131Z,40.39
2023-05-10T05:08:07.599Z,40.35
2023-05-10T05:10:36.433Z,40.34
2023-05-10T05:13:15.460Z,40.48
2023-05-10T05:15:45.786Z,40.49
2023-05-10T05:18:17.134Z,40.90
2023-05-10T05:20:48.112Z,40.62
2023-05-10T05:23:18.298Z,40.48
2023-05-10T05:25:47.383Z,40.29
2023-05-10T05:28:16.674Z,40.31
2023-05-10T05:30:48.727Z,40.05
2023-05-10T05:33:19.723Z,40.00
2023-05-10T05:35:52.186Z,39.97
2023-05-10T05:38:20.646Z,39.99
2023-05-10T05:40:48.801Z,40.02
2023-05-10T05:43:19.389Z,39.96
2023-05-10T05:45:48.644Z,39.86
2023-05-10T05:48:18.070Z,40.04
2023-05-10T05:50:48.088Z,39.87
2023-05-10T05:53:18.631Z,39.91
2023-05-10T05:55:59.364Z,40.10
2023-05-10T05:58:28.615Z,40.06
2023-05-10T06:01:00.869Z,39.84
2023-05-10T06:03:30.754Z,39.67
2023-05-10T06:06:00.721Z,39.28
2023-05-10T06:08:29.780Z,39.25
2023-05-10T06:10:58.308Z,39.27
2023-05-10T06:13:34.100Z,39.31
2023-05-10T06:16:04.812Z,39.36
2023-05-10T06:18:34.012Z,39.29
2023-05-10T06:21:03.355Z,39.27
2023-05-10T06:23:33.026Z,39.21
2023-05-10T06:26:03.854Z,39.20
2023-05-10T06:28:34.521Z,39.19
2023-05-10T06:31:03.519Z,39.21
2023-05-10T06:33:32.895Z,39.28
2023-05-10T06:36:02.601Z,39.22
2023-05-10T06:38:30.887Z,39.64
2023-05-10T06:41:00.553Z,39.30
2023-05-10T06:43:30.664Z,39.15
2023-05-10T06:46:00.088Z,39.05
2023-05-10T06:48:29.097Z,38.99
2023-05-10T06:50:58.717Z,39.00
2023-05-10T06:53:27.771Z,38.93
2023-05-10T06:55:56.913Z,38.94
2023-05-10T06:58:27.149Z,38.88
2023-05-10T07:00:56.227Z,38.79
2023-05-10T07:03:25.064Z,38.75
2023-05-10T07:05:54.849Z,38.72
2023-05-10T07:08:23.683Z,38.71
2023-05-10T07:10:52.572Z,38.86
2023-05-10T07:13:22.212Z,38.82
2023-05-10T07:15:54.241Z,38.75
2023-05-10T07:18:23.186Z,38.63
2023-05-10T07:20:52.167Z,39.15
2023-05-10T07:23:21.325Z,38.68
2023-05-10T07:25:53.864Z,39.53
2023-05-10T07:28:26.844Z,39.06
2023-05-10T07:30:55.528Z,38.77
2023-05-10T07:33:24.457Z,39.23
2023-05-10T07:35:53.395Z,39.17
2023-05-10T07:38:25.059Z,39.71
2023-05-10T07:40:56.383Z,39.16
2023-05-10T07:43:27.923Z,38.71
2023-05-10T07:45:56.901Z,38.53
2023-05-10T07:48:26.222Z,38.88
2023-05-10T07:50:54.539Z,38.92
2023-05-10T07:53:23.364Z,39.21
2023-05-10T07:56:33.235Z,39.01
2023-05-10T07:59:06.489Z,38.67
2023-05-10T08:01:36.546Z,38.49
2023-05-10T08:04:05.072Z,38.29
2023-05-10T08:06:34.435Z,38.23
2023-05-10T08:09:04.008Z,38.32
2023-05-10T08:11:34.313Z,38.24
2023-05-10T08:14:03.747Z,38.22
2023-05-10T08:16:33.953Z,38.16
2023-05-10T08:19:08.949Z,38.17
2023-05-10T08:21:38.104Z,38.14
2023-05-10T08:24:07.232Z,38.15
2023-05-10T08:26:36.521Z,38.14
2023-05-10T08:29:06.449Z,38.18
2023-05-10T08:31:35.450Z,38.10
2023-05-10T08:34:04.201Z,38.08
2023-05-10T08:36:33.768Z,37.99
2023-05-10T08:39:02.366Z,39.25
2023-05-10T08:41:35.776Z,39.46
2023-05-10T08:44:07.413Z,39.49
2023-05-10T08:46:40.475Z,39.42
2023-05-10T08:49:10.409Z,39.34
2023-05-10T08:51:44.720Z,39.30
2023-05-10T08:54:15.490Z,39.06
2023-05-10T08:56:44.865Z,39.07
2023-05-10T08:59:15.431Z,38.99
2023-05-10T09:01:46.670Z,38.97
2023-05-10T09:04:16.722Z,38.99
2023-05-10T09:06:45.907Z,38.80
2023-05-10T09:09:15.737Z,38.89
2023-05-10T09:11:46.741Z,38.90
2023-05-10T09:14:18.036Z,38.77
2023-05-10T09:16:47.989Z,38.72
2023-05-10T09:19:17.492Z,38.65
2023-05-10T09:21:46.907Z,38.59
2023-05-10T09:24:18.115Z,38.55
2023-05-10T09:26:51.116Z,38.56
2023-05-10T09:29:20.668Z,38.48
2023-05-10T09:31:53.732Z,38.60
2023-05-10T09:34:32.237Z,38.52
2023-05-10T09:37:03.652Z,38.29
2023-05-10T09:39:33.554Z,38.16
2023-05-10T09:42:10.807Z,38.10
2023-05-10T09:44:40.920Z,38.15
2023-05-10T09:47:10.126Z,38.14
2023-05-10T09:49:38.594Z,38.15
2023-05-10T09:52:09.197Z,38.26
2023-05-10T09:54:40.809Z,38.16
2023-05-10T09:57:23.575Z,38.30
2023-05-10T09:59:56.020Z,38.18
2023-05-10T10:02:31.653Z,38.21
2023-05-10T10:05:04.024Z,38.17
2023-05-10T10:07:33.722Z,38.07
2023-05-10T10:10:04.172Z,38.16
2023-05-10T10:12:36.170Z,37.82
2023-05-10T10:15:06.274Z,37.20
2023-05-10T10:17:37.168Z,37.65
2023-05-10T10:20:10.463Z,37.16
2023-05-10T10:22:40.500Z,37.13
2023-05-10T10:25:11.085Z,36.92
2023-05-10T10:27:54.838Z,36.96
2023-05-10T10:30:40.244Z,37.12
2023-05-10T10:33:29.371Z,37.16
2023-05-10T10:36:02.208Z,37.18
2023-05-10T10:39:00.810Z,37.39
2023-05-10T10:41:52.021Z,37.44
2023-05-10T10:44:35.698Z,37.40
2023-05-10T10:47:24.542Z,37.22
2023-05-10T10:50:00.069Z,37.75
2023-05-10T10:52:42.421Z,37.30
2023-05-10T10:55:16.619Z,37.21
2023-05-10T10:57:50.632Z,37.20
2023-05-10T11:00:29.959Z,37.13
2023-05-10T11:03:06.437Z,37.24
2023-05-10T11:05:35.495Z,37.09
2023-05-10T11:08:36.413Z,37.35
2023-05-10T11:11:11.900Z,37.83
2023-05-10T11:13:49.291Z,38.30
2023-05-10T11:16:23.626Z,37.77
2023-05-10T11:19:05.689Z,38.03
2023-05-10T11:21:36.394Z,38.02
2023-05-10T11:24:17.125Z,38.14
2023-05-10T11:26:52.757Z,38.26
2023-05-10T11:29:22.575Z,38.24
2023-05-10T11:31:52.556Z,38.72
2023-05-10T11:34:32.784Z,38.05
2023-05-10T11:37:02.688Z,38.92
2023-05-10T11:39:34.423Z,39.15
2023-05-10T11:42:03.633Z,39.13
2023-05-10T11:44:35.838Z,39.23
2023-05-10T11:47:05.338Z,38.68
2023-05-10T11:49:34.710Z,39.33
2023-05-10T11:52:12.652Z,39.57
2023-05-10T11:55:01.039Z,39.77
2023-05-10T11:57:30.644Z,39.12
2023-05-10T11:59:59.847Z,38.95
2023-05-10T12:02:28.663Z,39.63
2023-05-10T12:04:59.030Z,39.89
2023-05-10T12:07:28.592Z,40.04
2023-05-10T12:10:19.687Z,40.25
2023-05-10T12:12:49.730Z,40.21
2023-05-10T12:15:24.272Z,40.19
2023-05-10T12:17:53.911Z,39.58
2023-05-10T12:20:24.487Z,40.29
2023-05-10T12:22:57.272Z,39.70
2023-05-10T12:25:32.516Z,39.79
2023-05-10T12:28:02.973Z,39.59
2023-05-10T12:30:36.268Z,39.59
2023-05-10T12:33:18.730Z,39.88
2023-05-10T12:35:56.141Z,40.16
2023-05-10T12:38:32.268Z,40.18
2023-05-10T12:41:03.875Z,41.27
2023-05-10T12:43:33.658Z,40.60
2023-05-10T12:46:12.282Z,40.73
2023-05-10T12:48:43.088Z,40.82
2023-05-10T12:51:18.797Z,41.63
2023-05-10T12:53:49.723Z,42.07
2023-05-10T12:56:19.456Z,41.51
2023-05-10T12:58:50.026Z,42.08
2023-05-10T13:01:20.246Z,42.57
2023-05-10T13:03:48.754Z,42.13
2023-05-10T13:06:17.544Z,42.53
2023-05-10T13:08:46.734Z,42.49
2023-05-10T13:11:19.003Z,42.34
2023-05-10T13:13:47.644Z,42.73
2023-05-10T13:16:17.140Z,42.89
2023-05-10T13:18:47.414Z,42.77
2023-05-10T13:21:18.648Z,43.59
2023-05-10T13:23:48.192Z,43.11
2023-05-10T13:26:16.980Z,43.33
2023-05-10T13:28:47.650Z,42.64
2023-05-10T13:31:17.560Z,43.32
2023-05-10T13:33:46.903Z,42.83
2023-05-10T13:36:16.509Z,42.57
2023-05-10T13:38:46.844Z,42.30
2023-05-10T13:41:16.423Z,43.02
2023-05-10T13:43:46.127Z,43.20
2023-05-10T13:46:15.870Z,43.46
2023-05-10T13:48:44.719Z,42.87
2023-05-10T13:51:15.021Z,43.54
2023-05-10T13:53:43.950Z,43.77
2023-05-10T13:56:12.923Z,43.92
2023-05-10T13:58:42.767Z,43.84
2023-05-10T14:01:13.674Z,43.89
2023-05-10T14:03:44.193Z,44.01
2023-05-10T14:06:12.665Z,43.99
2023-05-10T14:08:40.937Z,44.01
2023-05-10T14:11:10.153Z,43.37
2023-05-10T14:13:38.624Z,43.18
2023-05-10T14:16:08.034Z,42.37
2023-05-10T14:18:37.107Z,42.35
2023-05-10T14:21:06.612Z,43.00
2023-05-10T14:23:36.579Z,42.39
2023-05-10T14:26:05.503Z,43.28
2023-05-10T14:28:34.710Z,43.51
2023-05-10T14:31:03.475Z,43.72
2023-05-10T14:33:32.354Z,43.80
2023-05-10T14:36:01.633Z,43.83
2023-05-10T14:38:30.280Z,43.86
2023-05-10T14:41:00.043Z,44.92
2023-05-10T14:43:33.014Z,43.43
2023-05-10T14:46:02.211Z,43.56
2023-05-10T14:48:30.879Z,43.04
2023-05-10T14:51:00.167Z,42.90
2023-05-10T14:53:28.964Z,43.03
2023-05-10T14:55:59.420Z,43.33
2023-05-10T14:58:33.973Z,43.88
2023-05-10T15:01:02.953Z,43.30
2023-05-10T15:03:32.612Z,43.47
2023-05-10T15:06:02.623Z,43.30
2023-05-10T15:08:31.848Z,43.95
2023-05-10T15:11:00.505Z,44.57
2023-05-10T15:13:30.393Z,44.95
2023-05-10T15:15:59.539Z,43.91
2023-05-10T15:18:29.166Z,44.08
2023-05-10T15:21:00.016Z,44.08
2023-05-10T15:23:28.888Z,43.92
2023-05-10T15:25:59.721Z,43.96
2023-05-10T15:28:31.107Z,43.97
2023-05-10T15:31:02.222Z,43.98
2023-05-10T15:33:30.746Z,43.98
2023-05-10T15:35:59.577Z,44.03
2023-05-10T15:38:28.786Z,44.13
2023-05-10T15:40:59.985Z,44.19
2023-05-10T15:43:30.625Z,44.68
2023-05-10T15:45:59.821Z,44.58
2023-05-10T15:48:28.797Z,44.83
2023-05-10T15:50:58.650Z,45.33
2023-05-10T15:53:27.806Z,44.66
2023-05-10T15:55:56.395Z,44.67
2023-05-10T15:58:25.328Z,44.79
2023-05-10T16:00:54.605Z,44.88
2023-05-10T16:03:23.087Z,44.96
2023-05-10T16:05:51.997Z,46.35
2023-05-10T16:08:20.462Z,46.53
2023-05-10T16:10:50.171Z,46.25
2023-05-10T16:13:19.309Z,46.26
2023-05-10T16:15:48.033Z,46.35
2023-05-10T16:18:18.679Z,46.56
2023-05-10T16:20:47.679Z,47.27
2023-05-10T16:23:17.708Z,47.56
2023-05-10T16:25:47.492Z,47.01
2023-05-10T16:28:16.386Z,46.67
2023-05-10T16:30:46.029Z,46.16
2023-05-10T16:33:16.480Z,45.90
2023-05-10T16:35:45.457Z,45.83
2023-05-10T16:38:24.283Z,46.15
2023-05-10T16:41:00.475Z,46.19
2023-05-10T16:43:37.239Z,46.33
2023-05-10T16:46:12.450Z,46.58
2023-05-10T16:48:41.206Z,46.54
2023-05-10T16:51:10.490Z,46.55
2023-05-10T16:53:38.785Z,47.04
2023-05-10T16:56:08.263Z,47.00
2023-05-10T16:58:46.042Z,46.63
2023-05-10T17:01:55.217Z,47.43
2023-05-10T17:04:25.280Z,46.79
2023-05-10T17:06:57.298Z,46.88
2023-05-10T17:09:28.654Z,46.92
2023-05-10T17:11:57.911Z,46.99
2023-05-10T17:14:32.571Z,47.07
2023-05-10T17:17:04.407Z,46.91
2023-05-10T17:19:40.726Z,46.89
2023-05-10T17:22:09.539Z,46.57
2023-05-10T17:24:38.965Z,46.94
2023-05-10T17:27:09.437Z,46.92
2023-05-10T17:29:39.924Z,46.51
2023-05-10T17:32:18.830Z,46.68
2023-05-10T17:34:55.168Z,46.74
2023-05-10T17:37:24.479Z,46.59
2023-05-10T17:39:53.293Z,46.55
2023-05-10T17:42:25.939Z,46.64
2023-05-10T17:45:08.369Z,46.90
2023-05-10T17:47:52.602Z,47.72
2023-05-10T17:50:25.497Z,47.98
2023-05-10T17:52:57.570Z,47.11
2023-05-10T17:56:11.913Z,47.93
2023-05-10T17:58:45.044Z,47.56
2023-05-10T18:01:27.719Z,47.59
2023-05-10T18:04:25.300Z,48.10
2023-05-10T18:07:02.016Z,47.01
2023-05-10T18:09:36.237Z,46.99
2023-05-10T18:12:08.620Z,47.55
2023-05-10T18:14:40.962Z,46.87
2023-05-10T18:17:25.599Z,47.00
2023-05-10T18:20:57.263Z,47.96
2023-05-10T18:23:28.761Z,47.16
2023-05-10T18:25:59.234Z,47.01
2023-05-10T18:28:28.970Z,47.36
2023-05-10T18:30:58.969Z,47.28
2023-05-10T18:33:31.040Z,47.65
2023-05-10T18:36:04.027Z,47.01
2023-05-10T18:38:32.854Z,46.95
2023-05-10T18:41:02.683Z,46.90
2023-05-10T18:43:31.158Z,46.86
2023-05-10T18:46:02.800Z,46.83
2023-05-10T18:48:32.264Z,47.33
2023-05-10T18:51:01.891Z,47.12
2023-05-10T18:53:34.544Z,47.04
2023-05-10T18:56:05.504Z,47.95
2023-05-10T18:58:36.475Z,47.96
2023-05-10T19:01:11.069Z,48.13
2023-05-10T19:03:40.033Z,48.03
2023-05-10T19:06:09.670Z,48.05
2023-05-10T19:08:39.752Z,47.90
2023-05-10T19:11:08.780Z,47.82
2023-05-10T19:13:37.234Z,47.88
2023-05-10T19:16:15.906Z,47.91
2023-05-10T19:18:49.694Z,47.92
2023-05-10T19:21:20.160Z,48.10
2023-05-10T19:23:50.952Z,47.26
2023-05-10T19:26:23.148Z,47.23
2023-05-10T19:28:53.302Z,46.94
2023-05-10T19:31:22.978Z,46.94
2023-05-10T19:33:53.551Z,47.69
2023-05-10T19:36:24.689Z,47.77
2023-05-10T19:38:55.950Z,47.54
2023-05-10T19:41:25.169Z,47.11
2023-05-10T19:43:57.052Z,47.13
2023-05-10T19:46:27.289Z,46.94
2023-05-10T19:48:56.697Z,46.74
2023-05-10T19:51:25.649Z,46.67
2023-05-10T19:53:56.597Z,46.83
2023-05-10T19:56:25.472Z,46.71
2023-05-10T19:58:54.526Z,47.02
2023-05-10T20:01:24.122Z,46.99
2023-05-10T20:03:53.162Z,47.80
2023-05-10T20:06:23.559Z,48.02
2023-05-10T20:08:53.392Z,48.05
2023-05-10T20:11:24.176Z,47.74
2023-05-10T20:13:53.535Z,47.32
2023-05-10T20:16:26.500Z,47.99
2023-05-10T20:18:56.186Z,47.28
2023-05-10T20:21:27.095Z,47.90
2023-05-10T20:23:56.459Z,48.05
2023-05-10T20:26:25.756Z,47.35
2023-05-10T20:28:55.024Z,47.33
2023-05-10T20:31:24.312Z,47.61
2023-05-10T20:33:53.135Z,47.32
2023-05-10T20:36:23.130Z,47.19
2023-05-10T20:38:51.998Z,47.15
2023-05-10T20:41:20.940Z,47.25
2023-05-10T20:43:50.783Z,47.27
2023-05-10T20:46:19.378Z,47.35
2023-05-10T20:48:47.884Z,47.41
2023-05-10T20:51:17.206Z,47.46
2023-05-10T20:53:47.153Z,47.52
2023-05-10T20:56:16.943Z,47.52
2023-05-10T20:58:45.557Z,48.04
2023-05-10T21:01:15.063Z,48.68
2023-05-10T21:03:43.745Z,48.76
2023-05-10T21:06:12.858Z,48.23
2023-05-10T21:08:41.190Z,47.53
2023-05-10T21:11:10.655Z,47.34
2023-05-10T21:13:39.267Z,47.35
2023-05-10T21:16:09.030Z,47.47
2023-05-10T21:18:38.170Z,48.48
2023-05-10T21:21:06.999Z,48.47
2023-05-10T21:23:35.715Z,48.46
2023-05-10T21:26:05.217Z,48.49
2023-05-10T21:28:33.615Z,47.57
2023-05-10T21:31:02.383Z,47.65
2023-05-10T21:33:31.109Z,48.19
2023-05-10T21:36:00.053Z,48.17
2023-05-10T21:38:29.563Z,48.12
2023-05-10T21:40:58.591Z,48.32
2023-05-10T21:43:26.903Z,48.45
2023-05-10T21:45:55.672Z,48.23
2023-05-10T21:48:24.730Z,48.17
2023-05-10T21:50:53.519Z,48.05
2023-05-10T21:53:22.964Z,48.00
2023-05-10T21:55:51.414Z,47.89
2023-05-10T21:58:20.684Z,47.54
2023-05-10T22:00:49.068Z,47.49
2023-05-10T22:03:18.523Z,47.46
2023-05-10T22:05:47.111Z,47.35
2023-05-10T22:08:17.036Z,48.12
2023-05-10T22:10:47.721Z,47.66
2023-05-10T22:13:17.278Z,47.48
2023-05-10T22:15:47.207Z,47.42
2023-05-10T22:18:17.151Z,47.97
2023-05-10T22:20:48.181Z,47.71
2023-05-10T22:23:17.295Z,47.92
2023-05-10T22:25:46.885Z,47.77
2023-05-10T22:28:16.239Z,48.10
2023-05-10T22:30:45.307Z,47.66
2023-05-10T22:33:15.340Z,48.35
2023-05-10T22:35:44.606Z,48.50
2023-05-10T22:38:13.382Z,48.21
2023-05-10T22:40:43.382Z,49.11
2023-05-10T22:43:12.706Z,49.73
2023-05-10T22:45:40.987Z,48.60
2023-05-10T22:48:09.913Z,48.54
2023-05-10T22:50:38.919Z,47.66
2023-05-10T22:53:08.712Z,47.69
2023-05-10T22:55:37.496Z,47.35
2023-05-10T22:58:07.176Z,47.29
2023-05-10T23:00:36.205Z,47.15
2023-05-10T23:03:07.139Z,47.16
2023-05-10T23:05:36.287Z,47.99
2023-05-10T23:08:05.066Z,47.96
2023-05-10T23:10:34.066Z,47.61
2023-05-10T23:13:02.802Z,48.22
2023-05-10T23:15:33.597Z,48.19
2023-05-10T23:18:02.828Z,47.39
2023-05-10T23:20:31.694Z,47.78
2023-05-10T23:23:00.521Z,47.08
2023-05-10T23:25:29.084Z,47.04
2023-05-10T23:27:58.316Z,47.57
2023-05-10T23:30:27.200Z,47.96
2023-05-10T23:32:55.964Z,47.52
2023-05-10T23:35:24.915Z,47.14
2023-05-10T23:37:53.347Z,46.96
2023-05-10T23:40:22.587Z,47.54
2023-05-10T23:42:52.217Z,47.04
2023-05-10T23:45:21.619Z,46.83
2023-05-10T23:47:51.090Z,47.02
2023-05-10T23:50:21.636Z,47.95
2023-05-10T23:52:50.828Z,47.27
2023-05-10T23:55:19.735Z,46.96
2023-05-10T23:57:49.383Z,47.21
